Terminal Aerodrome Forecast
Issued by NWS

Home | Current Version | Previous Version | Text Only | Print | Product List | Glossary On
Versions: 1 2 3 4 5 6 7 8 9 10 11 12 13 14 15 16 17 18 19
000
FTAK31 PAJN 181100
TAFAGY
TAF
PAGY 181134Z 1812/1912 VRB03KT 6SM BR OVC040
      TEMPO 1812/1816 VRB03KT 3SM BR SCT005 OVC030
     FM181600 04005KT P6SM VCSH SCT030 OVC060
     FM182000 05006KT P6SM -RA SCT020 OVC050
     FM190000 20006KT P6SM -RA BKN020 OVC040
     FM190800 20008KT P6SM -RA SCT025 OVC050
      AMD LTD TO CLD VIS AND WIND=

USA.gov is the U.S. government's official web portal to all federal, state and local government web resources and services.